Flugplatz Dortmund

Bericht für EDLW

vom 14.11. um 07:50 UTC

Wind 7 kt aus 110°

Sichtweite 10 km oder mehr

gute Sicht, keine Wolken < 5000 ft, keine CB, keine Wettererscheinungen (CAVOK)

Temperatur 5.0°C

Taupunkt 2.0°C

Luftfeuchtigkeit 81%

Luftdruck 1002 hPa

EDLW 140750Z 11007KT 090V150 CAVOK 05/02 Q1002

Prognose für EDLW

vom 14.11. um 00:00 UTC

Zwischen 00:00 UTC und 00:00 UTC

Wind 7 kt aus 130°

Sichtweite 10 km oder mehr

gering bewölkt in 3500 ft


Zwischen 00:00 und 00:00 UTC übergehend zu

Wind 7 kt aus 70°

Sichtweite 10 km oder mehr

gering bewölkt in 3500 ft

TAF EDLW 140500Z 1406/1506 13007KT 9999 FEW035 BECMG 1411/1414 07007KT
Impressum